sensor_id;sensor_type;location;lat;lon;timestamp;temperature;humidity
1678;DHT22;6034;46.864;15.216;2023-03-03T06:03:48;5.00;99.90
1678;DHT22;6034;46.864;15.216;2023-03-03T06:06:15;5.00;99.90
1678;DHT22;6034;46.864;15.216;2023-03-03T06:08:43;5.00;99.90
1678;DHT22;6034;46.864;15.216;2023-03-03T06:11:10;4.90;99.90
1678;DHT22;6034;46.864;15.216;2023-03-03T06:13:38;4.90;99.90
1678;DHT22;6034;46.864;15.216;2023-03-03T06:16:06;5.00;99.90
1678;DHT22;6034;46.864;15.216;2023-03-03T06:18:33;5.00;99.90
1678;DHT22;6034;46.864;15.216;2023-03-03T06:21:01;5.10;99.90
1678;DHT22;6034;46.864;15.216;2023-03-03T06:23:28;5.10;99.90
1678;DHT22;6034;46.864;15.216;2023-03-03T06:25:55;5.10;99.90
1678;DHT22;6034;46.864;15.216;2023-03-03T06:28:22;5.10;99.90
1678;DHT22;6034;46.864;15.216;2023-03-03T06:30:51;5.20;99.90
1678;DHT22;6034;46.864;15.216;2023-03-03T06:33:18;5.10;99.90
1678;DHT22;6034;46.864;15.216;2023-03-03T06:35:47;4.30;99.90
1678;DHT22;6034;46.864;15.216;2023-03-03T06:38:16;5.20;99.90
1678;DHT22;6034;46.864;15.216;2023-03-03T06:40:43;5.20;99.90
1678;DHT22;6034;46.864;15.216;2023-03-03T06:43:11;5.20;99.90
1678;DHT22;6034;46.864;15.216;2023-03-03T06:45:38;5.30;99.90
1678;DHT22;6034;46.864;15.216;2023-03-03T06:48:05;5.30;99.90
1678;DHT22;6034;46.864;15.216;2023-03-03T06:50:32;5.30;99.90
1678;DHT22;6034;46.864;15.216;2023-03-03T06:53:01;5.20;99.90
1678;DHT22;6034;46.864;15.216;2023-03-03T06:55:29;5.30;99.90
1678;DHT22;6034;46.864;15.216;2023-03-03T06:57:56;5.30;99.90
1678;DHT22;6034;46.864;15.216;2023-03-03T07:00:25;5.30;99.90
1678;DHT22;6034;46.864;15.216;2023-03-03T07:02:53;5.30;99.90
1678;DHT22;6034;46.864;15.216;2023-03-03T07:05:23;5.30;99.90
1678;DHT22;6034;46.864;15.216;2023-03-03T07:07:52;5.40;99.90
1678;DHT22;6034;46.864;15.216;2023-03-03T07:10:21;5.30;99.90
1678;DHT22;6034;46.864;15.216;2023-03-03T07:12:49;5.30;99.90
1678;DHT22;6034;46.864;15.216;2023-03-03T07:15:17;5.40;99.90
1678;DHT22;6034;46.864;15.216;2023-03-03T07:17:46;5.40;99.90
1678;DHT22;6034;46.864;15.216;2023-03-03T07:20:15;5.40;99.90
1678;DHT22;6034;46.864;15.216;2023-03-03T07:22:44;5.40;99.90
1678;DHT22;6034;46.864;15.216;2023-03-03T07:25:17;5.50;99.90
1678;DHT22;6034;46.864;15.216;2023-03-03T07:27:45;5.40;99.90
1678;DHT22;6034;46.864;15.216;2023-03-03T07:30:19;5.10;99.90
1678;DHT22;6034;46.864;15.216;2023-03-03T07:32:47;5.10;99.90
1678;DHT22;6034;46.864;15.216;2023-03-03T07:38:00;5.10;99.90
1678;DHT22;6034;46.864;15.216;2023-03-03T07:40:30;5.00;99.90
1678;DHT22;6034;46.864;15.216;2023-03-03T07:43:00;5.00;99.90
1678;DHT22;6034;46.864;15.216;2023-03-03T07:45:30;4.90;99.90
1678;DHT22;6034;46.864;15.216;2023-03-03T07:48:00;4.70;99.90
1678;DHT22;6034;46.864;15.216;2023-03-03T07:50:29;4.90;99.90
1678;DHT22;6034;46.864;15.216;2023-03-03T07:52:59;4.90;99.90
1678;DHT22;6034;46.864;15.216;2023-03-03T07:55:29;5.00;99.90
1678;DHT22;6034;46.864;15.216;2023-03-03T07:57:58;5.00;99.90
1678;DHT22;6034;46.864;15.216;2023-03-03T08:03:19;5.00;99.90
1678;DHT22;6034;46.864;15.216;2023-03-03T08:05:47;5.00;99.90
1678;DHT22;6034;46.864;15.216;2023-03-03T08:08:18;6.50;99.90
1678;DHT22;6034;46.864;15.216;2023-03-03T08:10:51;5.30;99.90
1678;DHT22;6034;46.864;15.216;2023-03-03T08:13:18;5.40;99.90
1678;DHT22;6034;46.864;15.216;2023-03-03T08:15:47;5.30;99.90
1678;DHT22;6034;46.864;15.216;2023-03-03T08:18:20;5.40;99.90
1678;DHT22;6034;46.864;15.216;2023-03-03T08:20:49;5.50;99.90
1678;DHT22;6034;46.864;15.216;2023-03-03T08:23:17;5.60;99.90
1678;DHT22;6034;46.864;15.216;2023-03-03T08:25:44;5.60;99.90
1678;DHT22;6034;46.864;15.216;2023-03-03T08:28:11;5.60;99.90
1678;DHT22;6034;46.864;15.216;2023-03-03T08:30:39;5.60;99.90
1678;DHT22;6034;46.864;15.216;2023-03-03T08:33:06;5.70;99.90
1678;DHT22;6034;46.864;15.216;2023-03-03T08:35:35;5.70;99.90
1678;DHT22;6034;46.864;15.216;2023-03-03T08:38:02;5.80;99.90
1678;DHT22;6034;46.864;15.216;2023-03-03T08:40:29;5.80;99.90
1678;DHT22;6034;46.864;15.216;2023-03-03T08:42:56;5.80;99.90
1678;DHT22;6034;46.864;15.216;2023-03-03T08:45:24;5.80;99.90
1678;DHT22;6034;46.864;15.216;2023-03-03T08:47:51;5.90;99.90
1678;DHT22;6034;46.864;15.216;2023-03-03T08:50:18;5.90;99.90
1678;DHT22;6034;46.864;15.216;2023-03-03T08:52:46;5.90;99.90
1678;DHT22;6034;46.864;15.216;2023-03-03T08:55:13;6.00;99.90
1678;DHT22;6034;46.864;15.216;2023-03-03T08:57:40;6.00;99.90
1678;DHT22;6034;46.864;15.216;2023-03-03T09:00:08;6.10;99.90
1678;DHT22;6034;46.864;15.216;2023-03-03T09:02:35;6.10;99.90
1678;DHT22;6034;46.864;15.216;2023-03-03T09:05:02;6.20;99.90
1678;DHT22;6034;46.864;15.216;2023-03-03T09:07:29;6.20;99.90
1678;DHT22;6034;46.864;15.216;2023-03-03T09:09:58;6.20;99.90
1678;DHT22;6034;46.864;15.216;2023-03-03T09:12:28;6.30;99.90
1678;DHT22;6034;46.864;15.216;2023-03-03T09:14:55;6.30;99.90
1678;DHT22;6034;46.864;15.216;2023-03-03T09:17:26;6.30;99.90
1678;DHT22;6034;46.864;15.216;2023-03-03T09:19:56;6.40;99.90
1678;DHT22;6034;46.864;15.216;2023-03-03T09:22:27;6.40;99.90
1678;DHT22;6034;46.864;15.216;2023-03-03T09:24:56;6.50;99.90
1678;DHT22;6034;46.864;15.216;2023-03-03T09:27:27;6.50;99.90
1678;DHT22;6034;46.864;15.216;2023-03-03T09:29:56;6.60;99.90
1678;DHT22;6034;46.864;15.216;2023-03-03T09:32:29;6.60;99.90
1678;DHT22;6034;46.864;15.216;2023-03-03T09:34:57;6.60;99.90
1678;DHT22;6034;46.864;15.216;2023-03-03T09:37:26;6.80;99.90
1678;DHT22;6034;46.864;15.216;2023-03-03T09:39:57;6.90;99.90
1678;DHT22;6034;46.864;15.216;2023-03-03T09:42:33;7.00;99.90
1678;DHT22;6034;46.864;15.216;2023-03-03T09:45:11;7.30;99.90
1678;DHT22;6034;46.864;15.216;2023-03-03T09:47:44;7.60;99.90
1678;DHT22;6034;46.864;15.216;2023-03-03T09:50:18;7.40;99.90
1678;DHT22;6034;46.864;15.216;2023-03-03T09:52:47;7.30;99.90
1678;DHT22;6034;46.864;15.216;2023-03-03T09:55:24;7.30;99.90
1678;DHT22;6034;46.864;15.216;2023-03-03T09:57:59;7.70;99.90
1678;DHT22;6034;46.864;15.216;2023-03-03T10:00:35;7.60;99.90
1678;DHT22;6034;46.864;15.216;2023-03-03T10:03:27;7.70;99.90
1678;DHT22;6034;46.864;15.216;2023-03-03T10:06:01;7.70;99.90
1678;DHT22;6034;46.864;15.216;2023-03-03T10:08:36;8.00;99.90
1678;DHT22;6034;46.864;15.216;2023-03-03T10:11:12;8.10;99.90
1678;DHT22;6034;46.864;15.216;2023-03-03T10:13:59;8.30;99.90
1678;DHT22;6034;46.864;15.216;2023-03-03T10:19:13;7.70;99.90
1678;DHT22;6034;46.864;15.216;2023-03-03T10:21:43;7.80;99.90
1678;DHT22;6034;46.864;15.216;2023-03-03T10:24:17;7.90;99.90
1678;DHT22;6034;46.864;15.216;2023-03-03T10:26:52;7.80;99.90
1678;DHT22;6034;46.864;15.216;2023-03-03T10:29:28;7.90;99.90
1678;DHT22;6034;46.864;15.216;2023-03-03T10:32:14;8.10;99.90
1678;DHT22;6034;46.864;15.216;2023-03-03T10:34:49;8.10;99.90
1678;DHT22;6034;46.864;15.216;2023-03-03T10:37:21;8.00;99.90
1678;DHT22;6034;46.864;15.216;2023-03-03T10:39:56;8.20;99.90
1678;DHT22;6034;46.864;15.216;2023-03-03T10:42:34;8.30;99.90
1678;DHT22;6034;46.864;15.216;2023-03-03T10:45:10;8.40;99.90
1678;DHT22;6034;46.864;15.216;2023-03-03T10:47:42;8.50;99.90
1678;DHT22;6034;46.864;15.216;2023-03-03T10:50:14;8.60;99.90
1678;DHT22;6034;46.864;15.216;2023-03-03T10:52:46;8.60;99.90
1678;DHT22;6034;46.864;15.216;2023-03-03T10:58:21;8.70;99.90
1678;DHT22;6034;46.864;15.216;2023-03-03T11:00:56;8.80;99.90
1678;DHT22;6034;46.864;15.216;2023-03-03T11:03:30;8.90;99.90
1678;DHT22;6034;46.864;15.216;2023-03-03T11:06:01;9.00;99.90
1678;DHT22;6034;46.864;15.216;2023-03-03T11:08:33;9.10;99.90
1678;DHT22;6034;46.864;15.216;2023-03-03T11:11:04;9.00;99.90
1678;DHT22;6034;46.864;15.216;2023-03-03T11:13:36;9.00;99.90
1678;DHT22;6034;46.864;15.216;2023-03-03T11:19:01;9.20;99.90
1678;DHT22;6034;46.864;15.216;2023-03-03T11:21:32;9.20;99.90
1678;DHT22;6034;46.864;15.216;2023-03-03T11:26:58;9.20;99.90
1678;DHT22;6034;46.864;15.216;2023-03-03T11:29:32;9.20;99.90
1678;DHT22;6034;46.864;15.216;2023-03-03T11:32:04;9.10;99.90
1678;DHT22;6034;46.864;15.216;2023-03-03T11:34:41;9.00;99.90
1678;DHT22;6034;46.864;15.216;2023-03-03T11:37:10;9.10;99.90
1678;DHT22;6034;46.864;15.216;2023-03-03T11:39:38;8.90;99.90
1678;DHT22;6034;46.864;15.216;2023-03-03T11:42:07;9.00;99.90
1678;DHT22;6034;46.864;15.216;2023-03-03T11:44:37;9.00;99.90
1678;DHT22;6034;46.864;15.216;2023-03-03T11:47:09;9.10;99.90
1678;DHT22;6034;46.864;15.216;2023-03-03T11:49:40;9.00;99.90
1678;DHT22;6034;46.864;15.216;2023-03-03T11:52:13;9.00;99.90
1678;DHT22;6034;46.864;15.216;2023-03-03T11:54:45;9.00;99.90
1678;DHT22;6034;46.864;15.216;2023-03-03T11:57:18;9.40;99.90
1678;DHT22;6034;46.864;15.216;2023-03-03T11:59:52;9.50;99.90
1678;DHT22;6034;46.864;15.216;2023-03-03T12:02:34;9.60;99.90
1678;DHT22;6034;46.864;15.216;2023-03-03T12:05:10;9.80;99.90
1678;DHT22;6034;46.864;15.216;2023-03-03T12:07:41;9.90;99.90
1678;DHT22;6034;46.864;15.216;2023-03-03T12:10:18;10.10;99.90
1678;DHT22;6034;46.864;15.216;2023-03-03T12:12:49;10.20;99.90
1678;DHT22;6034;46.864;15.216;2023-03-03T12:15:23;10.30;99.90
1678;DHT22;6034;46.864;15.216;2023-03-03T12:17:56;10.30;99.90
1678;DHT22;6034;46.864;15.216;2023-03-03T12:20:27;10.50;99.90
1678;DHT22;6034;46.864;15.216;2023-03-03T12:22:59;10.50;99.90
1678;DHT22;6034;46.864;15.216;2023-03-03T12:25:32;10.50;99.90
1678;DHT22;6034;46.864;15.216;2023-03-03T12:28:02;10.50;99.90
1678;DHT22;6034;46.864;15.216;2023-03-03T12:30:34;10.70;99.90
1678;DHT22;6034;46.864;15.216;2023-03-03T12:33:10;10.70;99.90
1678;DHT22;6034;46.864;15.216;2023-03-03T12:35:42;10.60;99.90
1678;DHT22;6034;46.864;15.216;2023-03-03T12:38:14;10.50;99.90
1678;DHT22;6034;46.864;15.216;2023-03-03T12:40:45;10.10;99.90
1678;DHT22;6034;46.864;15.216;2023-03-03T12:43:18;10.30;99.90
1678;DHT22;6034;46.864;15.216;2023-03-03T12:45:54;10.60;99.90
1678;DHT22;6034;46.864;15.216;2023-03-03T12:48:24;10.70;99.90
1678;DHT22;6034;46.864;15.216;2023-03-03T12:50:56;10.80;99.90
1678;DHT22;6034;46.864;15.216;2023-03-03T12:56:17;10.50;99.90
1678;DHT22;6034;46.864;15.216;2023-03-03T12:58:48;10.60;99.90
1678;DHT22;6034;46.864;15.216;2023-03-03T13:01:23;10.90;99.90
1678;DHT22;6034;46.864;15.216;2023-03-03T13:03:57;10.60;99.90
1678;DHT22;6034;46.864;15.216;2023-03-03T13:06:31;10.70;99.90
1678;DHT22;6034;46.864;15.216;2023-03-03T13:09:05;10.30;99.90
1678;DHT22;6034;46.864;15.216;2023-03-03T13:11:43;10.40;99.90
1678;DHT22;6034;46.864;15.216;2023-03-03T13:14:14;10.50;99.90
1678;DHT22;6034;46.864;15.216;2023-03-03T13:16:44;10.50;99.90
1678;DHT22;6034;46.864;15.216;2023-03-03T13:19:14;10.50;99.90
1678;DHT22;6034;46.864;15.216;2023-03-03T13:21:46;10.50;99.90
1678;DHT22;6034;46.864;15.216;2023-03-03T13:24:16;10.40;99.90
1678;DHT22;6034;46.864;15.216;2023-03-03T13:26:44;10.30;99.90
1678;DHT22;6034;46.864;15.216;2023-03-03T13:29:14;10.40;99.90
1678;DHT22;6034;46.864;15.216;2023-03-03T13:31:45;10.40;99.90
1678;DHT22;6034;46.864;15.216;2023-03-03T13:34:17;10.40;99.90
1678;DHT22;6034;46.864;15.216;2023-03-03T13:36:47;10.50;99.90
1678;DHT22;6034;46.864;15.216;2023-03-03T13:39:18;10.40;99.90
1678;DHT22;6034;46.864;15.216;2023-03-03T13:41:48;10.40;99.90
1678;DHT22;6034;46.864;15.216;2023-03-03T13:44:19;10.60;99.90
1678;DHT22;6034;46.864;15.216;2023-03-03T13:46:50;10.50;99.90
1678;DHT22;6034;46.864;15.216;2023-03-03T13:49:24;10.60;99.90
1678;DHT22;6034;46.864;15.216;2023-03-03T13:51:59;10.70;99.90
1678;DHT22;6034;46.864;15.216;2023-03-03T13:57:17;10.70;99.90
1678;DHT22;6034;46.864;15.216;2023-03-03T13:59:48;10.70;99.90
1678;DHT22;6034;46.864;15.216;2023-03-03T14:02:24;10.70;99.90
1678;DHT22;6034;46.864;15.216;2023-03-03T14:04:58;10.80;99.90
1678;DHT22;6034;46.864;15.216;2023-03-03T14:07:29;10.90;99.90
1678;DHT22;6034;46.864;15.216;2023-03-03T14:10:02;10.80;99.90
1678;DHT22;6034;46.864;15.216;2023-03-03T14:12:33;10.70;99.90
1678;DHT22;6034;46.864;15.216;2023-03-03T14:15:03;10.70;99.90
1678;DHT22;6034;46.864;15.216;2023-03-03T14:17:34;10.80;99.90
1678;DHT22;6034;46.864;15.216;2023-03-03T14:20:11;10.80;99.90
1678;DHT22;6034;46.864;15.216;2023-03-03T14:22:43;10.70;99.90
1678;DHT22;6034;46.864;15.216;2023-03-03T14:25:11;10.70;99.90
1678;DHT22;6034;46.864;15.216;2023-03-03T14:27:39;10.80;99.90
1678;DHT22;6034;46.864;15.216;2023-03-03T14:30:23;10.70;99.90
1678;DHT22;6034;46.864;15.216;2023-03-03T14:32:57;10.70;99.90
1678;DHT22;6034;46.864;15.216;2023-03-03T14:35:25;10.80;99.90
1678;DHT22;6034;46.864;15.216;2023-03-03T14:38:01;10.70;99.90
1678;DHT22;6034;46.864;15.216;2023-03-03T14:40:29;10.70;99.90
1678;DHT22;6034;46.864;15.216;2023-03-03T14:42:58;10.70;99.90
1678;DHT22;6034;46.864;15.216;2023-03-03T14:45:28;10.80;99.90
1678;DHT22;6034;46.864;15.216;2023-03-03T14:47:56;10.80;99.90
1678;DHT22;6034;46.864;15.216;2023-03-03T14:50:29;10.80;99.90
1678;DHT22;6034;46.864;15.216;2023-03-03T14:53:06;10.80;99.90
1678;DHT22;6034;46.864;15.216;2023-03-03T14:55:35;10.70;99.90
1678;DHT22;6034;46.864;15.216;2023-03-03T14:58:03;10.80;99.90
1678;DHT22;6034;46.864;15.216;2023-03-03T15:00:32;10.80;99.90
1678;DHT22;6034;46.864;15.216;2023-03-03T15:03:01;10.70;99.90
1678;DHT22;6034;46.864;15.216;2023-03-03T15:05:29;10.60;99.90
1678;DHT22;6034;46.864;15.216;2023-03-03T15:07:57;10.70;99.90
1678;DHT22;6034;46.864;15.216;2023-03-03T15:10:30;10.70;99.90
1678;DHT22;6034;46.864;15.216;2023-03-03T15:12:57;10.70;99.90
1678;DHT22;6034;46.864;15.216;2023-03-03T15:15:24;10.60;99.90
1678;DHT22;6034;46.864;15.216;2023-03-03T15:17:57;10.60;99.90
1678;DHT22;6034;46.864;15.216;2023-03-03T15:20:29;10.60;99.90
1678;DHT22;6034;46.864;15.216;2023-03-03T15:23:01;10.60;99.90
1678;DHT22;6034;46.864;15.216;2023-03-03T15:25:35;10.50;99.90
1678;DHT22;6034;46.864;15.216;2023-03-03T15:28:09;10.50;99.90
1678;DHT22;6034;46.864;15.216;2023-03-03T15:30:42;10.50;99.90
1678;DHT22;6034;46.864;15.216;2023-03-03T15:33:14;10.50;99.90
1678;DHT22;6034;46.864;15.216;2023-03-03T15:35:47;10.60;99.90
1678;DHT22;6034;46.864;15.216;2023-03-03T15:38:25;10.50;99.90
1678;DHT22;6034;46.864;15.216;2023-03-03T15:40:58;10.50;99.90
1678;DHT22;6034;46.864;15.216;2023-03-03T15:43:31;10.50;99.90
1678;DHT22;6034;46.864;15.216;2023-03-03T15:46:03;10.40;99.90
1678;DHT22;6034;46.864;15.216;2023-03-03T15:48:35;10.40;99.90
1678;DHT22;6034;46.864;15.216;2023-03-03T15:51:09;10.40;99.90
1678;DHT22;6034;46.864;15.216;2023-03-03T15:53:48;10.40;99.90
1678;DHT22;6034;46.864;15.216;2023-03-03T15:56:23;10.40;99.90
1678;DHT22;6034;46.864;15.216;2023-03-03T16:01:37;10.20;99.90
1678;DHT22;6034;46.864;15.216;2023-03-03T16:04:08;10.10;99.90
1678;DHT22;6034;46.864;15.216;2023-03-03T16:06:40;10.00;99.90
1678;DHT22;6034;46.864;15.216;2023-03-03T16:09:14;10.00;99.90
1678;DHT22;6034;46.864;15.216;2023-03-03T16:11:45;9.90;99.90
1678;DHT22;6034;46.864;15.216;2023-03-03T16:14:27;9.90;99.90
1678;DHT22;6034;46.864;15.216;2023-03-03T16:16:58;9.80;99.90
1678;DHT22;6034;46.864;15.216;2023-03-03T16:19:31;9.80;99.90
1678;DHT22;6034;46.864;15.216;2023-03-03T16:22:23;9.70;99.90
1678;DHT22;6034;46.864;15.216;2023-03-03T16:24:56;9.60;99.90
1678;DHT22;6034;46.864;15.216;2023-03-03T16:27:29;9.60;99.90
1678;DHT22;6034;46.864;15.216;2023-03-03T16:30:02;9.60;99.90
1678;DHT22;6034;46.864;15.216;2023-03-03T16:32:34;9.50;99.90
1678;DHT22;6034;46.864;15.216;2023-03-03T16:35:12;9.30;99.90
1678;DHT22;6034;46.864;15.216;2023-03-03T16:37:41;9.30;99.90
1678;DHT22;6034;46.864;15.216;2023-03-03T16:40:14;9.30;99.90
1678;DHT22;6034;46.864;15.216;2023-03-03T16:42:45;9.30;99.90
1678;DHT22;6034;46.864;15.216;2023-03-03T16:45:20;9.30;99.90
1678;DHT22;6034;46.864;15.216;2023-03-03T16:48:00;9.30;99.90
1678;DHT22;6034;46.864;15.216;2023-03-03T16:50:30;9.20;99.90
1678;DHT22;6034;46.864;15.216;2023-03-03T16:53:05;9.30;99.90
1678;DHT22;6034;46.864;15.216;2023-03-03T16:55:37;9.20;99.90
1678;DHT22;6034;46.864;15.216;2023-03-03T16:58:15;9.20;99.90
1678;DHT22;6034;46.864;15.216;2023-03-03T17:00:49;9.20;99.90
1678;DHT22;6034;46.864;15.216;2023-03-03T17:06:09;9.10;99.90
1678;DHT22;6034;46.864;15.216;2023-03-03T17:08:46;9.20;99.90
1678;DHT22;6034;46.864;15.216;2023-03-03T17:11:16;9.20;99.90
1678;DHT22;6034;46.864;15.216;2023-03-03T17:16:31;9.00;99.90
1678;DHT22;6034;46.864;15.216;2023-03-03T17:19:04;9.00;99.90
1678;DHT22;6034;46.864;15.216;2023-03-03T17:21:43;9.00;99.90
1678;DHT22;6034;46.864;15.216;2023-03-03T17:24:15;8.90;99.90
1678;DHT22;6034;46.864;15.216;2023-03-03T17:26:51;8.90;99.90
1678;DHT22;6034;46.864;15.216;2023-03-03T17:29:23;8.90;99.90
1678;DHT22;6034;46.864;15.216;2023-03-03T17:31:58;8.90;99.90
1678;DHT22;6034;46.864;15.216;2023-03-03T17:34:33;8.90;99.90
1678;DHT22;6034;46.864;15.216;2023-03-03T17:37:09;8.90;99.90
1678;DHT22;6034;46.864;15.216;2023-03-03T17:39:45;8.90;99.90
1678;DHT22;6034;46.864;15.216;2023-03-03T17:42:14;8.80;99.90
1678;DHT22;6034;46.864;15.216;2023-03-03T17:44:45;8.80;99.90
1678;DHT22;6034;46.864;15.216;2023-03-03T17:47:22;8.80;99.90
1678;DHT22;6034;46.864;15.216;2023-03-03T17:50:01;8.80;99.90
1678;DHT22;6034;46.864;15.216;2023-03-03T17:52:35;8.70;99.90
1678;DHT22;6034;46.864;15.216;2023-03-03T17:55:35;8.60;99.90
1678;DHT22;6034;46.864;15.216;2023-03-03T17:58:25;8.70;99.90
1678;DHT22;6034;46.864;15.216;2023-03-03T18:01:00;8.60;99.90
1678;DHT22;6034;46.864;15.216;2023-03-03T18:09:17;8.60;99.90
1678;DHT22;6034;46.864;15.216;2023-03-03T18:11:51;8.50;99.90
1678;DHT22;6034;46.864;15.216;2023-03-03T18:14:24;8.30;99.90
1678;DHT22;6034;46.864;15.216;2023-03-03T18:22:30;8.30;99.90
1678;DHT22;6034;46.864;15.216;2023-03-03T18:25:03;8.20;99.90
1678;DHT22;6034;46.864;15.216;2023-03-03T18:27:35;8.20;99.90
1678;DHT22;6034;46.864;15.216;2023-03-03T18:30:12;8.30;99.90
1678;DHT22;6034;46.864;15.216;2023-03-03T18:32:44;8.30;99.90
1678;DHT22;6034;46.864;15.216;2023-03-03T18:35:22;8.20;99.90
1678;DHT22;6034;46.864;15.216;2023-03-03T18:37:51;8.20;99.90
1678;DHT22;6034;46.864;15.216;2023-03-03T18:40:28;8.20;99.90
1678;DHT22;6034;46.864;15.216;2023-03-03T18:42:56;8.20;99.90
1678;DHT22;6034;46.864;15.216;2023-03-03T18:48:09;8.20;99.90
1678;DHT22;6034;46.864;15.216;2023-03-03T18:50:38;8.20;99.90
1678;DHT22;6034;46.864;15.216;2023-03-03T18:53:12;8.10;99.90
1678;DHT22;6034;46.864;15.216;2023-03-03T18:55:42;8.10;99.90
1678;DHT22;6034;46.864;15.216;2023-03-03T19:00:53;8.10;99.90
1678;DHT22;6034;46.864;15.216;2023-03-03T19:03:26;8.00;99.90
1678;DHT22;6034;46.864;15.216;2023-03-03T19:05:54;8.10;99.90
1678;DHT22;6034;46.864;15.216;2023-03-03T19:08:26;8.00;99.90
1678;DHT22;6034;46.864;15.216;2023-03-03T19:10:56;7.90;99.90
1678;DHT22;6034;46.864;15.216;2023-03-03T19:13:43;7.90;99.90
1678;DHT22;6034;46.864;15.216;2023-03-03T19:19:07;7.90;99.90
1678;DHT22;6034;46.864;15.216;2023-03-03T19:21:36;7.80;99.90
1678;DHT22;6034;46.864;15.216;2023-03-03T19:24:07;7.80;99.90
1678;DHT22;6034;46.864;15.216;2023-03-03T19:26:56;7.70;99.90
1678;DHT22;6034;46.864;15.216;2023-03-03T19:29:39;7.70;99.90
1678;DHT22;6034;46.864;15.216;2023-03-03T19:32:12;7.60;99.90
1678;DHT22;6034;46.864;15.216;2023-03-03T19:34:45;7.00;99.90
1678;DHT22;6034;46.864;15.216;2023-03-03T19:37:21;7.60;99.90
1678;DHT22;6034;46.864;15.216;2023-03-03T19:39:56;7.60;99.90
1678;DHT22;6034;46.864;15.216;2023-03-03T19:45:20;7.50;99.90
1678;DHT22;6034;46.864;15.216;2023-03-03T19:47:50;7.30;99.90
1678;DHT22;6034;46.864;15.216;2023-03-03T19:50:24;7.40;99.90
1678;DHT22;6034;46.864;15.216;2023-03-03T19:52:55;7.40;99.90
1678;DHT22;6034;46.864;15.216;2023-03-03T19:55:28;7.40;99.90
1678;DHT22;6034;46.864;15.216;2023-03-03T19:58:03;7.30;99.90
1678;DHT22;6034;46.864;15.216;2023-03-03T20:00:35;7.30;99.90
1678;DHT22;6034;46.864;15.216;2023-03-03T20:03:24;7.30;99.90
1678;DHT22;6034;46.864;15.216;2023-03-03T20:05:57;7.30;99.90
1678;DHT22;6034;46.864;15.216;2023-03-03T20:08:28;7.30;99.90
1678;DHT22;6034;46.864;15.216;2023-03-03T20:10:59;7.30;99.90
1678;DHT22;6034;46.864;15.216;2023-03-03T20:13:33;7.30;99.90
1678;DHT22;6034;46.864;15.216;2023-03-03T20:16:10;7.30;99.90
1678;DHT22;6034;46.864;15.216;2023-03-03T20:18:50;7.30;99.90
1678;DHT22;6034;46.864;15.216;2023-03-03T20:21:27;7.20;99.90
1678;DHT22;6034;46.864;15.216;2023-03-03T20:24:13;7.20;99.90
1678;DHT22;6034;46.864;15.216;2023-03-03T20:26:44;7.20;99.90
1678;DHT22;6034;46.864;15.216;2023-03-03T20:29:18;7.20;99.90
1678;DHT22;6034;46.864;15.216;2023-03-03T20:31:55;7.20;99.90
1678;DHT22;6034;46.864;15.216;2023-03-03T20:34:30;7.20;99.90
1678;DHT22;6034;46.864;15.216;2023-03-03T20:37:04;7.20;99.90
1678;DHT22;6034;46.864;15.216;2023-03-03T20:39:38;7.30;99.90
1678;DHT22;6034;46.864;15.216;2023-03-03T20:42:12;7.30;99.90
1678;DHT22;6034;46.864;15.216;2023-03-03T20:44:49;7.30;99.90
1678;DHT22;6034;46.864;15.216;2023-03-03T20:47:21;7.30;99.90
1678;DHT22;6034;46.864;15.216;2023-03-03T20:49:56;7.20;99.90
1678;DHT22;6034;46.864;15.216;2023-03-03T20:52:28;7.20;99.90
1678;DHT22;6034;46.864;15.216;2023-03-03T20:55:02;7.20;99.90
1678;DHT22;6034;46.864;15.216;2023-03-03T20:57:34;7.10;99.90
1678;DHT22;6034;46.864;15.216;2023-03-03T21:00:05;7.20;99.90
1678;DHT22;6034;46.864;15.216;2023-03-03T21:02:36;7.20;99.90
1678;DHT22;6034;46.864;15.216;2023-03-03T21:05:08;7.00;99.90
1678;DHT22;6034;46.864;15.216;2023-03-03T21:07:37;6.90;99.90
1678;DHT22;6034;46.864;15.216;2023-03-03T21:10:16;6.90;99.90
1678;DHT22;6034;46.864;15.216;2023-03-03T21:12:49;6.90;99.90
1678;DHT22;6034;46.864;15.216;2023-03-03T21:15:24;6.90;99.90
1678;DHT22;6034;46.864;15.216;2023-03-03T21:17:54;6.90;99.90
1678;DHT22;6034;46.864;15.216;2023-03-03T21:20:23;6.90;99.90
1678;DHT22;6034;46.864;15.216;2023-03-03T21:22:51;6.90;99.90
1678;DHT22;6034;46.864;15.216;2023-03-03T21:28:12;6.90;99.90
1678;DHT22;6034;46.864;15.216;2023-03-03T21:33:40;6.80;99.90
1678;DHT22;6034;46.864;15.216;2023-03-03T21:36:07;6.80;99.90
1678;DHT22;6034;46.864;15.216;2023-03-03T21:38:34;6.80;99.90
1678;DHT22;6034;46.864;15.216;2023-03-03T21:41:02;6.80;99.90
1678;DHT22;6034;46.864;15.216;2023-03-03T21:43:32;6.80;99.90
1678;DHT22;6034;46.864;15.216;2023-03-03T21:46:00;6.80;99.90
1678;DHT22;6034;46.864;15.216;2023-03-03T21:48:27;6.70;99.90
1678;DHT22;6034;46.864;15.216;2023-03-03T21:50:55;6.60;99.90
1678;DHT22;6034;46.864;15.216;2023-03-03T21:53:22;6.60;99.90
1678;DHT22;6034;46.864;15.216;2023-03-03T21:55:51;6.50;99.90
1678;DHT22;6034;46.864;15.216;2023-03-03T21:58:18;6.50;99.90
1678;DHT22;6034;46.864;15.216;2023-03-03T22:00:45;6.60;99.90
1678;DHT22;6034;46.864;15.216;2023-03-03T22:03:12;6.60;99.90
1678;DHT22;6034;46.864;15.216;2023-03-03T22:05:39;6.60;99.90
1678;DHT22;6034;46.864;15.216;2023-03-03T22:08:08;6.60;99.90
1678;DHT22;6034;46.864;15.216;2023-03-03T22:10:35;6.60;99.90
1678;DHT22;6034;46.864;15.216;2023-03-03T22:13:01;6.50;99.90
1678;DHT22;6034;46.864;15.216;2023-03-03T22:15:28;6.50;99.90
1678;DHT22;6034;46.864;15.216;2023-03-03T22:17:57;6.40;99.90
1678;DHT22;6034;46.864;15.216;2023-03-03T22:20:24;6.40;99.90
1678;DHT22;6034;46.864;15.216;2023-03-03T22:22:52;6.20;99.90
1678;DHT22;6034;46.864;15.216;2023-03-03T22:25:20;5.90;99.90
1678;DHT22;6034;46.864;15.216;2023-03-03T22:27:47;5.90;99.90
1678;DHT22;6034;46.864;15.216;2023-03-03T22:30:14;5.90;99.90
1678;DHT22;6034;46.864;15.216;2023-03-03T22:32:41;5.90;99.90
1678;DHT22;6034;46.864;15.216;2023-03-03T22:35:08;5.90;99.90
1678;DHT22;6034;46.864;15.216;2023-03-03T22:37:35;6.00;99.90
1678;DHT22;6034;46.864;15.216;2023-03-03T22:40:02;6.00;99.90
1678;DHT22;6034;46.864;15.216;2023-03-03T22:42:31;5.90;99.90
1678;DHT22;6034;46.864;15.216;2023-03-03T22:44:57;6.00;99.90
1678;DHT22;6034;46.864;15.216;2023-03-03T22:47:24;6.00;99.90
1678;DHT22;6034;46.864;15.216;2023-03-03T22:49:51;6.00;99.90
1678;DHT22;6034;46.864;15.216;2023-03-03T22:52:18;6.00;99.90
1678;DHT22;6034;46.864;15.216;2023-03-03T22:54:45;6.00;99.90
1678;DHT22;6034;46.864;15.216;2023-03-03T22:57:12;6.00;99.90
1678;DHT22;6034;46.864;15.216;2023-03-03T22:59:40;6.00;99.90
1678;DHT22;6034;46.864;15.216;2023-03-03T23:02:07;6.00;99.90
1678;DHT22;6034;46.864;15.216;2023-03-03T23:04:34;6.10;99.90
1678;DHT22;6034;46.864;15.216;2023-03-03T23:07:01;6.00;99.90
1678;DHT22;6034;46.864;15.216;2023-03-03T23:09:28;6.10;99.90
1678;DHT22;6034;46.864;15.216;2023-03-03T23:11:55;6.00;99.90
1678;DHT22;6034;46.864;15.216;2023-03-03T23:14:22;5.90;99.90
1678;DHT22;6034;46.864;15.216;2023-03-03T23:16:50;6.00;99.90
1678;DHT22;6034;46.864;15.216;2023-03-03T23:19:17;5.90;99.90
1678;DHT22;6034;46.864;15.216;2023-03-03T23:21:44;5.90;99.90
1678;DHT22;6034;46.864;15.216;2023-03-03T23:24:11;5.90;99.90
1678;DHT22;6034;46.864;15.216;2023-03-03T23:26:38;5.80;99.90